HERC2 NZWP-NZWP
Flight info
| Callsign | HERC2 |
|---|---|
| Flight time | 0h 33m |
| Altitude | 2000 |
| Route | NZWP/ GMARA/ NZWP |
| Aircraft | C130/M-V/N |
Departure
| Time | 2026-04-21 06:36 |
|---|---|
| Airport | RNZAF Base Auckland-Whenuapai (NZWP) |
Arrival
| Time | 2026-04-21 07:09 |
|---|---|
| Airport | RNZAF Base Auckland-Whenuapai (NZWP) |
| Time | Latitude | Longitude | Altitude | Speed | Heading |
|---|---|---|---|---|---|
| 2026-04-21 06:16 | -36.79097 | 174.62669 | 91 ft | 0 kts | 211° |
| 2026-04-21 06:20 | -36.79088 | 174.62676 | 92 ft | 0 kts | 212° |
| 2026-04-21 06:32 | -36.79089 | 174.62676 | 90 ft | 0 kts | 205° |
| 2026-04-21 06:32 | -36.79114 | 174.62739 | 91 ft | 6 kts | 73° |
| 2026-04-21 06:32 | -36.79086 | 174.62752 | 93 ft | 10 kts | 302° |
| 2026-04-21 06:33 | -36.79125 | 174.62698 | 89 ft | 7 kts | 213° |
| 2026-04-21 06:33 | -36.79155 | 174.62672 | 92 ft | 3 kts | 211° |
| 2026-04-21 06:33 | -36.79298 | 174.62450 | 97 ft | 59 kts | 233° |
| 2026-04-21 06:33 | -36.79495 | 174.62125 | 98 ft | 11 kts | 232° |
| 2026-04-21 06:34 | -36.79552 | 174.62071 | 97 ft | 0 kts | 170° |
| 2026-04-21 06:34 | -36.79588 | 174.62099 | 96 ft | 13 kts | 117° |
| 2026-04-21 06:34 | -36.79589 | 174.62120 | 96 ft | 14 kts | 73° |
| 2026-04-21 06:35 | -36.79456 | 174.62362 | 100 ft | 63 kts | 53° |
| 2026-04-21 06:35 | -36.79066 | 174.63011 | 88 ft | 123 kts | 54° |
| 2026-04-21 06:35 | -36.78441 | 174.63960 | 312 ft | 151 kts | 49° |
| 2026-04-21 06:35 | -36.77712 | 174.65137 | 428 ft | 190 kts | 56° |
| 2026-04-21 06:36 | -36.76816 | 174.66576 | 595 ft | 227 kts | 51° |
| 2026-04-21 06:36 | -36.75627 | 174.67964 | 1110 ft | 243 kts | 38° |
| 2026-04-21 06:36 | -36.74114 | 174.69073 | 1531 ft | 261 kts | 26° |
| 2026-04-21 06:36 | -36.72326 | 174.70154 | 1097 ft | 306 kts | 26° |
| 2026-04-21 06:37 | -36.70384 | 174.71323 | 1077 ft | 325 kts | 25° |
| 2026-04-21 06:37 | -36.68346 | 174.72504 | 1016 ft | 311 kts | 24° |
| 2026-04-21 06:37 | -36.66421 | 174.73591 | 586 ft | 306 kts | 26° |
| 2026-04-21 06:37 | -36.64446 | 174.74776 | 559 ft | 324 kts | 27° |
| 2026-04-21 06:38 | -36.62354 | 174.75833 | 950 ft | 324 kts | 17° |
| 2026-04-21 06:38 | -36.60179 | 174.76365 | 816 ft | 316 kts | 5° |
| 2026-04-21 06:38 | -36.57994 | 174.76604 | 646 ft | 316 kts | 6° |
| 2026-04-21 06:38 | -36.55853 | 174.76862 | 273 ft | 303 kts | 6° |
| 2026-04-21 06:39 | -36.53773 | 174.77160 | 321 ft | 298 kts | 7° |
| 2026-04-21 06:39 | -36.51710 | 174.77443 | 318 ft | 296 kts | 5° |
| 2026-04-21 06:39 | -36.49670 | 174.77757 | 356 ft | 292 kts | 14° |
| 2026-04-21 06:39 | -36.47949 | 174.78931 | 587 ft | 291 kts | 46° |
| 2026-04-21 06:40 | -36.46982 | 174.81052 | 864 ft | 289 kts | 77° |
| 2026-04-21 06:40 | -36.46910 | 174.83529 | 1073 ft | 289 kts | 105° |
| 2026-04-21 06:40 | -36.47790 | 174.85706 | 1229 ft | 287 kts | 131° |
| 2026-04-21 06:40 | -36.49416 | 174.87166 | 1356 ft | 294 kts | 159° |
| 2026-04-21 06:41 | -36.51456 | 174.87665 | 1239 ft | 308 kts | 181° |
| 2026-04-21 06:41 | -36.53593 | 174.87217 | 1104 ft | 320 kts | 199° |
| 2026-04-21 06:41 | -36.55514 | 174.85993 | 825 ft | 300 kts | 217° |
| 2026-04-21 06:41 | -36.56853 | 174.84147 | 720 ft | 277 kts | 237° |
| 2026-04-21 06:42 | -36.57697 | 174.82117 | 846 ft | 254 kts | 244° |
| 2026-04-21 06:42 | -36.58393 | 174.80090 | 914 ft | 255 kts | 246° |
| 2026-04-21 06:42 | -36.58932 | 174.77961 | 942 ft | 274 kts | 260° |
| 2026-04-21 06:42 | -36.58620 | 174.75605 | 1253 ft | 290 kts | 296° |
| 2026-04-21 06:43 | -36.57095 | 174.73952 | 1635 ft | 301 kts | 337° |
| 2026-04-21 06:43 | -36.54970 | 174.73564 | 1551 ft | 324 kts | 0° |
| 2026-04-21 06:43 | -36.52673 | 174.73796 | 1404 ft | 322 kts | 7° |
| 2026-04-21 06:43 | -36.50539 | 174.74182 | 1448 ft | 303 kts | 9° |
| 2026-04-21 06:44 | -36.48451 | 174.74730 | 1188 ft | 302 kts | 14° |
| 2026-04-21 06:44 | -36.46457 | 174.75331 | 1190 ft | 285 kts | 13° |
| 2026-04-21 06:44 | -36.44628 | 174.75876 | 1174 ft | 258 kts | 13° |
| 2026-04-21 06:44 | -36.42965 | 174.76423 | 1136 ft | 238 kts | 14° |
| 2026-04-21 06:45 | -36.41409 | 174.76937 | 1110 ft | 227 kts | 15° |
| 2026-04-21 06:45 | -36.39889 | 174.77458 | 1099 ft | 227 kts | 15° |
| 2026-04-21 06:45 | -36.38366 | 174.77998 | 1099 ft | 227 kts | 15° |
| 2026-04-21 06:45 | -36.36813 | 174.78559 | 1113 ft | 247 kts | 16° |
| 2026-04-21 06:46 | -36.35059 | 174.79195 | 1162 ft | 277 kts | 16° |
| 2026-04-21 06:46 | -36.33113 | 174.79894 | 1191 ft | 302 kts | 15° |
| 2026-04-21 06:46 | -36.31031 | 174.80627 | 1220 ft | 319 kts | 15° |
| 2026-04-21 06:46 | -36.28852 | 174.81391 | 1234 ft | 331 kts | 15° |
| 2026-04-21 06:47 | -36.26557 | 174.81731 | 1226 ft | 337 kts | 355° |
| 2026-04-21 06:47 | -36.24260 | 174.81266 | 1234 ft | 341 kts | 343° |
| 2026-04-21 06:47 | -36.22083 | 174.80111 | 1242 ft | 342 kts | 330° |
| 2026-04-21 06:47 | -36.20171 | 174.78371 | 1238 ft | 342 kts | 310° |
| 2026-04-21 06:48 | -36.18790 | 174.75977 | 1255 ft | 342 kts | 300° |
| 2026-04-21 06:48 | -36.17490 | 174.73497 | 1262 ft | 344 kts | 301° |
| 2026-04-21 06:48 | -36.16203 | 174.70986 | 1261 ft | 345 kts | 300° |
| 2026-04-21 06:48 | -36.14941 | 174.68457 | 1260 ft | 346 kts | 300° |
| 2026-04-21 06:49 | -36.13684 | 174.65911 | 1263 ft | 345 kts | 300° |
| 2026-04-21 06:49 | -36.13495 | 174.65528 | 1259 ft | 340 kts | 299° |
| 2026-04-21 06:50 | -36.12914 | 174.64347 | 1256 ft | 325 kts | 300° |
| 2026-04-21 06:50 | -36.11803 | 174.62054 | 1232 ft | 297 kts | 299° |
| 2026-04-21 06:50 | -36.10962 | 174.59868 | 1195 ft | 269 kts | 281° |
| 2026-04-21 06:51 | -36.11001 | 174.57714 | 1171 ft | 244 kts | 254° |
| 2026-04-21 06:51 | -36.11445 | 174.55777 | 1155 ft | 225 kts | 252° |
| 2026-04-21 06:51 | -36.11893 | 174.54015 | 1118 ft | 204 kts | 250° |
| 2026-04-21 06:51 | -36.12313 | 174.52427 | 1092 ft | 184 kts | 250° |
| 2026-04-21 06:52 | -36.12746 | 174.51030 | 1040 ft | 164 kts | 238° |
| 2026-04-21 06:52 | -36.13542 | 174.50170 | 975 ft | 148 kts | 207° |
| 2026-04-21 06:52 | -36.14375 | 174.49223 | 1024 ft | 181 kts | 230° |
| 2026-04-21 06:52 | -36.15414 | 174.48104 | 1097 ft | 216 kts | 216° |
| 2026-04-21 06:53 | -36.16713 | 174.46935 | 1161 ft | 244 kts | 215° |
| 2026-04-21 06:53 | -36.18140 | 174.45694 | 1200 ft | 256 kts | 214° |
| 2026-04-21 06:53 | -36.19637 | 174.44430 | 1221 ft | 265 kts | 214° |
| 2026-04-21 06:53 | -36.21184 | 174.43141 | 1222 ft | 267 kts | 214° |
| 2026-04-21 06:54 | -36.22706 | 174.41856 | 1224 ft | 262 kts | 214° |
| 2026-04-21 06:54 | -36.24204 | 174.40596 | 1223 ft | 259 kts | 214° |
| 2026-04-21 06:54 | -36.25654 | 174.39379 | 1217 ft | 251 kts | 213° |
| 2026-04-21 06:54 | -36.27087 | 174.38169 | 1210 ft | 246 kts | 214° |
| 2026-04-21 06:55 | -36.28491 | 174.36975 | 1204 ft | 243 kts | 213° |
| 2026-04-21 06:55 | -36.29879 | 174.35813 | 1202 ft | 239 kts | 214° |
| 2026-04-21 06:55 | -36.31254 | 174.34659 | 1201 ft | 238 kts | 214° |
| 2026-04-21 06:55 | -36.32621 | 174.33511 | 1201 ft | 237 kts | 213° |
| 2026-04-21 06:56 | -36.33986 | 174.32352 | 1193 ft | 237 kts | 214° |
| 2026-04-21 06:56 | -36.34880 | 174.31587 | 1194 ft | 236 kts | 214° |
| 2026-04-21 06:56 | -36.36251 | 174.30472 | 1185 ft | 236 kts | 206° |
| 2026-04-21 06:56 | -36.37850 | 174.30156 | 1176 ft | 236 kts | 172° |
| 2026-04-21 06:57 | -36.39323 | 174.31006 | 1176 ft | 238 kts | 140° |
| 2026-04-21 06:57 | -36.40224 | 174.32725 | 1176 ft | 241 kts | 113° |
| 2026-04-21 06:57 | -36.40778 | 174.34686 | 1188 ft | 241 kts | 110° |
| 2026-04-21 06:57 | -36.41284 | 174.36677 | 1191 ft | 242 kts | 109° |
| 2026-04-21 06:58 | -36.41765 | 174.38677 | 1197 ft | 242 kts | 108° |
| 2026-04-21 06:58 | -36.42229 | 174.40685 | 1196 ft | 242 kts | 108° |
| 2026-04-21 06:58 | -36.42688 | 174.42695 | 1196 ft | 242 kts | 108° |
| 2026-04-21 06:58 | -36.43140 | 174.44717 | 1196 ft | 242 kts | 107° |
| 2026-04-21 06:59 | -36.43600 | 174.46729 | 1186 ft | 243 kts | 108° |
| 2026-04-21 06:59 | -36.44049 | 174.48741 | 1193 ft | 242 kts | 107° |
| 2026-04-21 06:59 | -36.44502 | 174.50750 | 1190 ft | 241 kts | 108° |
| 2026-04-21 06:59 | -36.44961 | 174.52735 | 1222 ft | 240 kts | 108° |
| 2026-04-21 07:00 | -36.45411 | 174.54747 | 1195 ft | 242 kts | 108° |
| 2026-04-21 07:00 | -36.45841 | 174.56768 | 1187 ft | 242 kts | 108° |
| 2026-04-21 07:00 | -36.46271 | 174.58779 | 1220 ft | 241 kts | 106° |
| 2026-04-21 07:00 | -36.46713 | 174.60779 | 1219 ft | 244 kts | 107° |
| 2026-04-21 07:01 | -36.47165 | 174.62796 | 1217 ft | 242 kts | 108° |
| 2026-04-21 07:01 | -36.47613 | 174.64752 | 1205 ft | 225 kts | 108° |
| 2026-04-21 07:01 | -36.48633 | 174.68123 | 1146 ft | 192 kts | 130° |
| 2026-04-21 07:02 | -36.49462 | 174.69363 | 1115 ft | 182 kts | 134° |
| 2026-04-21 07:02 | -36.50299 | 174.70481 | 1095 ft | 172 kts | 135° |
| 2026-04-21 07:02 | -36.51135 | 174.71528 | 1084 ft | 178 kts | 137° |
| 2026-04-21 07:02 | -36.52068 | 174.72673 | 1122 ft | 198 kts | 137° |
| 2026-04-21 07:03 | -36.53094 | 174.73922 | 1163 ft | 214 kts | 137° |
| 2026-04-21 07:03 | -36.54190 | 174.75243 | 1193 ft | 225 kts | 137° |
| 2026-04-21 07:03 | -36.55342 | 174.76614 | 1210 ft | 233 kts | 138° |
| 2026-04-21 07:03 | -36.56532 | 174.78031 | 1223 ft | 240 kts | 137° |
| 2026-04-21 07:04 | -36.57758 | 174.79465 | 1229 ft | 241 kts | 142° |
| 2026-04-21 07:04 | -36.59210 | 174.80216 | 1193 ft | 220 kts | 178° |
| 2026-04-21 07:04 | -36.60618 | 174.79777 | 1172 ft | 207 kts | 214° |
| 2026-04-21 07:04 | -36.61646 | 174.78576 | 1167 ft | 200 kts | 226° |
| 2026-04-21 07:05 | -36.62583 | 174.77331 | 1163 ft | 199 kts | 221° |
| 2026-04-21 07:05 | -36.63829 | 174.76685 | 1142 ft | 196 kts | 183° |
| 2026-04-21 07:05 | -36.65166 | 174.76519 | 1148 ft | 191 kts | 190° |
| 2026-04-21 07:05 | -36.66463 | 174.76204 | 1147 ft | 189 kts | 192° |
| 2026-04-21 07:06 | -36.67713 | 174.75764 | 1123 ft | 187 kts | 211° |
| 2026-04-21 07:06 | -36.68725 | 174.74722 | 996 ft | 191 kts | 222° |
| 2026-04-21 07:06 | -36.69698 | 174.73592 | 883 ft | 194 kts | 223° |
| 2026-04-21 07:06 | -36.70696 | 174.72442 | 829 ft | 193 kts | 218° |
| 2026-04-21 07:07 | -36.71746 | 174.71452 | 899 ft | 188 kts | 217° |
| 2026-04-21 07:07 | -36.72880 | 174.70650 | 925 ft | 183 kts | 203° |
| 2026-04-21 07:07 | -36.74052 | 174.70023 | 692 ft | 185 kts | 203° |
| 2026-04-21 07:07 | -36.75177 | 174.69287 | 662 ft | 183 kts | 214° |
| 2026-04-21 07:08 | -36.76037 | 174.68129 | 650 ft | 176 kts | 234° |
| 2026-04-21 07:08 | -36.76634 | 174.66998 | 597 ft | 146 kts | 236° |
| 2026-04-21 07:08 | -36.77233 | 174.66010 | 493 ft | 142 kts | 232° |
| 2026-04-21 07:08 | -36.77807 | 174.65083 | 310 ft | 126 kts | 233° |
| 2026-04-21 07:09 | -36.78318 | 174.64240 | 214 ft | 120 kts | 232° |
| 2026-04-21 07:09 | -36.78823 | 174.63394 | 89 ft | 98 kts | 232° |
| 2026-04-21 07:09 | -36.79045 | 174.63034 | 87 ft | 25 kts | 233° |
| 2026-04-21 07:09 | -36.79122 | 174.62879 | 88 ft | 14 kts | 270° |
| 2026-04-21 07:10 | -36.79113 | 174.62830 | 89 ft | 0 kts | 288° |
| 2026-04-21 07:10 | -36.79110 | 174.62821 | 93 ft | 1 kts | 291° |
| 2026-04-21 07:10 | -36.79109 | 174.62817 | 93 ft | 1 kts | 291° |
| 2026-04-21 07:11 | -36.79104 | 174.62802 | 92 ft | 3 kts | 291° |
| 2026-04-21 07:11 | -36.79096 | 174.62776 | 92 ft | 4 kts | 291° |
| 2026-04-21 07:11 | -36.79110 | 174.62675 | 90 ft | 15 kts | 226° |
| 2026-04-21 07:11 | -36.79133 | 174.62655 | 92 ft | 0 kts | 212° |